Time;durP1;ratioP1;P1;durP2;ratioP2;P2;SDS_P1;SDS_P2;PMS_P1;PMS_P2;Temp;Humidity;BMP_temperature;BMP_pressure;BME280_temperature;BME280_humidity;BME280_pressure;Samples;Min_cycle;Max_cycle;Signal;HPM_P1;HPM_P2
2023/04/05 00:00:11;;;;;;;8.03;5.30;;;;;;;;;;5070623;28;20243;-79
2023/04/05 00:02:39;;;;;;;7.27;5.70;;;;;;;;;;5074845;28;20189;-79
2023/04/05 00:05:05;;;;;;;5.90;5.20;;;;;;;;;;5047069;28;20178;-79
2023/04/05 00:07:33;;;;;;;5.87;5.27;;;;;;;;;;5051007;28;20181;-79
2023/04/05 00:09:58;;;;;;;7.03;5.43;;;;;;;;;;5062841;28;20593;-79
2023/04/05 00:12:23;;;;;;;6.10;5.50;;;;;;;;;;5049408;28;20204;-79
2023/04/05 00:14:50;;;;;;;5.97;5.23;;;;;;;;;;5042441;28;20214;-79
2023/04/05 00:17:16;;;;;;;6.40;5.07;;;;;;;;;;5081558;28;20190;-80
2023/04/05 00:19:42;;;;;;;8.30;5.10;;;;;;;;;;5046622;28;20174;-80
2023/04/05 00:22:09;;;;;;;5.53;4.90;;;;;;;;;;5047530;28;20192;-80
2023/04/05 00:24:37;;;;;;;7.37;5.53;;;;;;;;;;5066697;28;20189;-80
2023/04/05 00:27:03;;;;;;;8.57;5.50;;;;;;;;;;5050119;28;20182;-80
2023/04/05 00:29:28;;;;;;;7.37;5.53;;;;;;;;;;5048721;28;20196;-80
2023/04/05 00:31:53;;;;;;;6.17;5.00;;;;;;;;;;5050249;28;20188;-81
2023/04/05 00:34:19;;;;;;;6.23;4.90;;;;;;;;;;5045616;28;20440;-80
2023/04/05 00:36:44;;;;;;;7.03;5.40;;;;;;;;;;5065472;28;20247;-80
2023/04/05 00:39:09;;;;;;;7.33;5.33;;;;;;;;;;5047517;28;20178;-81
2023/04/05 00:41:35;;;;;;;5.50;5.00;;;;;;;;;;5079769;28;20178;-80
2023/04/05 00:44:02;;;;;;;5.93;4.83;;;;;;;;;;5045682;28;20289;-81
2023/04/05 00:46:28;;;;;;;9.17;5.47;;;;;;;;;;5050035;28;20180;-81
2023/04/05 00:48:53;;;;;;;5.83;5.23;;;;;;;;;;5080161;28;20301;-81
2023/04/05 00:51:19;;;;;;;7.23;5.57;;;;;;;;;;5051160;28;20177;-80
2023/04/05 00:53:45;;;;;;;6.10;5.50;;;;;;;;;;5062449;28;20182;-80
2023/04/05 00:56:12;;;;;;;6.60;5.47;;;;;;;;;;5049693;28;20225;-81
2023/04/05 00:58:41;;;;;;;7.00;5.07;;;;;;;;;;5077589;28;20190;-80
2023/04/05 01:01:12;;;;;;;7.83;4.90;;;;;;;;;;5049970;28;20201;-80
2023/04/05 01:03:40;;;;;;;5.27;4.77;;;;;;;;;;5061249;28;20181;-80
2023/04/05 01:06:08;;;;;;;5.90;5.27;;;;;;;;;;5048490;28;20209;-80
2023/04/05 01:08:41;;;;;;;5.37;4.53;;;;;;;;;;5079600;28;20197;-80
2023/04/05 01:11:08;;;;;;;7.23;5.30;;;;;;;;;;5047845;28;20212;-80
2023/04/05 01:13:33;;;;;;;5.03;4.53;;;;;;;;;;5067000;28;20186;-80
2023/04/05 01:15:58;;;;;;;5.23;4.73;;;;;;;;;;5070298;28;20228;-80
2023/04/05 01:18:24;;;;;;;5.67;5.03;;;;;;;;;;5082322;28;20216;-80
2023/04/05 01:21:17;;;;;;;5.70;4.83;;;;;;;;;;5059795;28;20460;-80
2023/04/05 01:24:01;;;;;;;6.17;4.90;;;;;;;;;;5037092;28;20175;-80
2023/04/05 01:26:29;;;;;;;7.03;4.90;;;;;;;;;;5049642;28;20173;-80
2023/04/05 01:29:06;;;;;;;7.03;5.30;;;;;;;;;;5043371;28;20178;-80
2023/04/05 01:31:44;;;;;;;6.03;4.80;;;;;;;;;;5081955;28;20177;-80
2023/04/05 01:34:28;;;;;;;7.13;5.73;;;;;;;;;;5042299;28;20175;-80
2023/04/05 01:36:54;;;;;;;7.23;5.30;;;;;;;;;;5052879;28;20183;-80
2023/04/05 01:39:20;;;;;;;10.00;5.03;;;;;;;;;;5049928;28;20264;-80
2023/04/05 01:41:45;;;;;;;6.83;5.63;;;;;;;;;;5063851;28;20269;-80
2023/04/05 01:44:11;;;;;;;6.53;5.80;;;;;;;;;;5074138;28;20241;-80
2023/04/05 01:46:36;;;;;;;8.37;5.97;;;;;;;;;;5044518;28;20202;-80
2023/04/05 01:49:01;;;;;;;7.60;6.13;;;;;;;;;;5073873;28;20230;-80
2023/04/05 01:51:27;;;;;;;6.67;5.87;;;;;;;;;;5045986;28;20233;-80
2023/04/05 01:53:52;;;;;;;8.63;5.83;;;;;;;;;;5054167;28;20174;-80
2023/04/05 01:56:17;;;;;;;5.77;5.17;;;;;;;;;;5050238;28;20205;-81
2023/04/05 01:58:42;;;;;;;5.97;4.90;;;;;;;;;;5044834;28;20174;-80
2023/04/05 02:01:09;;;;;;;6.77;5.60;;;;;;;;;;5047611;28;20202;-80
2023/04/05 02:03:34;;;;;;;6.63;5.50;;;;;;;;;;5065641;28;20239;-81
2023/04/05 02:06:00;;;;;;;6.77;5.20;;;;;;;;;;5049178;28;20231;-80
2023/04/05 02:08:25;;;;;;;5.67;4.97;;;;;;;;;;5077319;28;20182;-80
2023/04/05 02:10:51;;;;;;;8.63;6.00;;;;;;;;;;5047413;28;20188;-80
2023/04/05 02:13:17;;;;;;;7.30;5.57;;;;;;;;;;5052375;28;20215;-80
2023/04/05 02:15:46;;;;;;;8.67;5.17;;;;;;;;;;5075571;28;20202;-80
2023/04/05 02:18:12;;;;;;;7.03;5.37;;;;;;;;;;5059460;28;20177;-80
2023/04/05 02:20:37;;;;;;;6.83;5.07;;;;;;;;;;5049077;28;20180;-80
2023/04/05 02:23:02;;;;;;;8.40;5.50;;;;;;;;;;5067272;28;20182;-80
2023/04/05 02:25:28;;;;;;;8.33;5.30;;;;;;;;;;5048397;28;20210;-80
2023/04/05 02:27:53;;;;;;;6.93;5.57;;;;;;;;;;5076997;28;20185;-80
2023/04/05 02:30:18;;;;;;;7.57;5.10;;;;;;;;;;5045350;28;20324;-80
2023/04/05 02:32:44;;;;;;;6.60;5.20;;;;;;;;;;5048592;28;20178;-79
2023/04/05 02:35:10;;;;;;;7.07;5.70;;;;;;;;;;5046737;28;20204;-79
2023/04/05 02:37:35;;;;;;;5.60;5.00;;;;;;;;;;5076349;28;20242;-80
2023/04/05 02:40:01;;;;;;;6.60;5.90;;;;;;;;;;5042167;28;20180;-80
2023/04/05 02:42:26;;;;;;;6.67;5.13;;;;;;;;;;5048265;28;20228;-79
2023/04/05 02:44:51;;;;;;;6.53;5.87;;;;;;;;;;5050396;28;20182;-79
2023/04/05 02:47:20;;;;;;;6.67;5.80;;;;;;;;;;5067363;28;20183;-79
2023/04/05 02:49:46;;;;;;;6.07;5.37;;;;;;;;;;5076506;28;20232;-79
2023/04/05 02:52:11;;;;;;;6.87;5.30;;;;;;;;;;5075959;28;20187;-79
2023/04/05 02:54:36;;;;;;;7.47;5.03;;;;;;;;;;5063972;28;20211;-79
2023/04/05 02:57:02;;;;;;;7.83;5.27;;;;;;;;;;5047045;28;20184;-79
2023/04/05 02:59:27;;;;;;;6.67;5.00;;;;;;;;;;5079235;28;20229;-79
2023/04/05 03:01:52;;;;;;;8.33;5.27;;;;;;;;;;5075141;28;20185;-79
2023/04/05 03:04:18;;;;;;;6.33;5.17;;;;;;;;;;5046285;28;20193;-79
2023/04/05 03:06:47;;;;;;;7.33;6.03;;;;;;;;;;5069939;28;20185;-79
2023/04/05 03:09:13;;;;;;;5.97;5.37;;;;;;;;;;5047617;28;20187;-79
2023/04/05 03:11:38;;;;;;;5.90;5.23;;;;;;;;;;5058599;28;20181;-79
2023/04/05 03:14:04;;;;;;;6.53;5.37;;;;;;;;;;5045387;28;20217;-79
2023/04/05 03:16:29;;;;;;;9.00;5.60;;;;;;;;;;5053835;28;20230;-79
2023/04/05 03:18:54;;;;;;;13.23;11.97;;;;;;;;;;5048017;28;20205;-79
2023/04/05 03:21:20;;;;;;;8.63;6.20;;;;;;;;;;5080279;28;20220;-79
2023/04/05 03:23:45;;;;;;;6.47;5.87;;;;;;;;;;5047877;28;20294;-79
2023/04/05 03:26:13;;;;;;;6.77;5.73;;;;;;;;;;5066567;28;20221;-79
2023/04/05 03:28:43;;;;;;;5.20;4.63;;;;;;;;;;5074996;28;20181;-79
2023/04/05 03:31:09;;;;;;;7.00;5.20;;;;;;;;;;5069050;28;20188;-79
2023/04/05 03:33:34;;;;;;;7.93;5.90;;;;;;;;;;5044597;28;20191;-79
2023/04/05 03:36:00;;;;;;;6.17;4.90;;;;;;;;;;5072431;28;20210;-79
2023/04/05 03:38:27;;;;;;;6.67;5.83;;;;;;;;;;5040302;28;20189;-79
2023/04/05 03:40:52;;;;;;;8.63;6.07;;;;;;;;;;5043799;28;20199;-79
2023/04/05 03:43:17;;;;;;;6.77;5.97;;;;;;;;;;5051360;28;20203;-79
2023/04/05 03:45:43;;;;;;;9.70;6.00;;;;;;;;;;5043631;28;20181;-79
2023/04/05 03:48:08;;;;;;;7.97;5.30;;;;;;;;;;5044439;28;20185;-79
2023/04/05 03:50:33;;;;;;;8.80;5.63;;;;;;;;;;5043623;28;20240;-79
2023/04/05 03:52:58;;;;;;;6.93;5.90;;;;;;;;;;5053680;28;20256;-79
2023/04/05 03:55:24;;;;;;;10.17;6.90;;;;;;;;;;5043485;28;20208;-80
2023/04/05 03:57:51;;;;;;;6.10;5.33;;;;;;;;;;5041822;28;20179;-80
2023/04/05 04:00:16;;;;;;;5.77;5.17;;;;;;;;;;5056634;28;20181;-79
2023/04/05 04:02:48;;;;;;;7.73;5.67;;;;;;;;;;5063373;28;20180;-80
2023/04/05 04:05:14;;;;;;;5.87;4.90;;;;;;;;;;5047393;28;20195;-79
2023/04/05 04:07:43;;;;;;;6.13;5.17;;;;;;;;;;5046973;28;20180;-80
2023/04/05 04:10:09;;;;;;;11.83;7.77;;;;;;;;;;5058794;28;20188;-80
2023/04/05 04:12:34;;;;;;;5.97;5.27;;;;;;;;;;5063629;28;20189;-79
2023/04/05 04:15:00;;;;;;;6.60;5.53;;;;;;;;;;5049176;28;20216;-79
2023/04/05 04:17:32;;;;;;;7.27;5.40;;;;;;;;;;5046531;28;20265;-80
2023/04/05 04:19:58;;;;;;;6.97;5.67;;;;;;;;;;5076661;28;20222;-79
2023/04/05 04:22:25;;;;;;;8.77;5.77;;;;;;;;;;5051452;28;20206;-79
2023/04/05 04:24:52;;;;;;;5.80;5.10;;;;;;;;;;5052554;28;20199;-79
2023/04/05 04:27:18;;;;;;;6.70;6.00;;;;;;;;;;5085773;28;20192;-79
2023/04/05 04:29:45;;;;;;;9.20;5.90;;;;;;;;;;5058023;28;20179;-79
2023/04/05 04:32:14;;;;;;;6.00;5.37;;;;;;;;;;5052019;28;20183;-79
2023/04/05 04:34:43;;;;;;;9.37;5.70;;;;;;;;;;5070846;28;20207;-79
2023/04/05 04:37:16;;;;;;;9.50;7.10;;;;;;;;;;5044578;28;20206;-79
2023/04/05 04:39:43;;;;;;;6.20;5.47;;;;;;;;;;5055284;28;20223;-79
2023/04/05 04:42:10;;;;;;;9.70;5.90;;;;;;;;;;5049296;28;20206;-79
2023/04/05 04:44:36;;;;;;;5.77;5.23;;;;;;;;;;5082837;28;20251;-79
2023/04/05 04:47:01;;;;;;;8.27;5.53;;;;;;;;;;5053517;28;20278;-78
2023/04/05 04:49:27;;;;;;;6.40;5.67;;;;;;;;;;5050416;28;20234;-79
2023/04/05 04:51:52;;;;;;;9.03;7.20;;;;;;;;;;5064737;28;20211;-78
2023/04/05 04:54:19;;;;;;;11.20;6.43;;;;;;;;;;5049506;28;20190;-79
2023/04/05 04:56:45;;;;;;;9.67;6.23;;;;;;;;;;5051473;28;20179;-78
2023/04/05 04:59:10;;;;;;;11.20;7.17;;;;;;;;;;5050211;28;20176;-79
2023/04/05 05:01:36;;;;;;;13.17;7.37;;;;;;;;;;5051042;28;20179;-79
2023/04/05 05:04:02;;;;;;;11.30;7.13;;;;;;;;;;5048726;28;20177;-79
2023/04/05 05:06:28;;;;;;;12.27;7.57;;;;;;;;;;5046072;28;20240;-79
2023/04/05 05:08:55;;;;;;;10.33;8.37;;;;;;;;;;5046524;28;20183;-78
2023/04/05 05:11:20;;;;;;;10.37;7.53;;;;;;;;;;5051812;28;20178;-78
2023/04/05 05:13:45;;;;;;;10.37;7.10;;;;;;;;;;5047667;28;20179;-79
2023/04/05 05:16:11;;;;;;;13.10;8.17;;;;;;;;;;5082446;28;20206;-78
2023/04/05 05:18:36;;;;;;;9.93;6.77;;;;;;;;;;5051828;28;20303;-78
2023/04/05 05:21:02;;;;;;;9.17;7.53;;;;;;;;;;5047991;28;20229;-78
2023/04/05 05:23:27;;;;;;;10.90;6.30;;;;;;;;;;5078859;28;20241;-78
2023/04/05 05:25:58;;;;;;;9.33;7.37;;;;;;;;;;5074991;28;20193;-79
2023/04/05 05:28:25;;;;;;;7.57;6.30;;;;;;;;;;5047130;28;20260;-78
2023/04/05 05:30:50;;;;;;;12.47;6.97;;;;;;;;;;5080342;28;20185;-78
2023/04/05 05:33:17;;;;;;;20.67;7.77;;;;;;;;;;5050515;28;20176;-79
2023/04/05 05:35:42;;;;;;;11.30;7.20;;;;;;;;;;5045393;28;20195;-79
2023/04/05 05:38:08;;;;;;;16.43;7.77;;;;;;;;;;5046122;28;20179;-79
2023/04/05 05:40:33;;;;;;;9.13;7.13;;;;;;;;;;5063336;28;20185;-79
2023/04/05 05:42:58;;;;;;;7.83;6.43;;;;;;;;;;5047589;28;20344;-79
2023/04/05 05:45:23;;;;;;;9.17;6.63;;;;;;;;;;5049771;28;20202;-78
2023/04/05 05:47:48;;;;;;;10.53;9.50;;;;;;;;;;5047630;28;20242;-79
2023/04/05 05:50:15;;;;;;;7.83;7.00;;;;;;;;;;5061985;28;20229;-79
2023/04/05 05:52:41;;;;;;;12.60;7.33;;;;;;;;;;5076410;28;20178;-79
2023/04/05 05:55:06;;;;;;;10.87;7.00;;;;;;;;;;5047489;28;20214;-79
2023/04/05 05:57:31;;;;;;;27.30;10.57;;;;;;;;;;5077280;28;20182;-80
2023/04/05 05:59:57;;;;;;;10.80;7.33;;;;;;;;;;5048367;28;20202;-79
2023/04/05 06:02:22;;;;;;;12.17;9.67;;;;;;;;;;5048196;28;20178;-79
2023/04/05 06:04:48;;;;;;;8.40;7.50;;;;;;;;;;5065572;28;20202;-79
2023/04/05 06:07:13;;;;;;;9.53;7.00;;;;;;;;;;5048651;28;20184;-79
2023/04/05 06:09:38;;;;;;;9.47;7.50;;;;;;;;;;5063288;28;20177;-79
2023/04/05 06:12:04;;;;;;;9.60;7.50;;;;;;;;;;5049823;28;20205;-79
2023/04/05 06:14:30;;;;;;;23.60;9.57;;;;;;;;;;5040309;28;20206;-79
2023/04/05 06:16:55;;;;;;;9.53;6.87;;;;;;;;;;5048750;28;20182;-79
2023/04/05 06:19:21;;;;;;;10.23;6.33;;;;;;;;;;5044662;28;20270;-79
2023/04/05 06:21:46;;;;;;;7.10;6.37;;;;;;;;;;5053126;28;20185;-79
2023/04/05 06:24:11;;;;;;;8.60;7.20;;;;;;;;;;5081692;28;20174;-79
2023/04/05 06:26:36;;;;;;;6.70;5.67;;;;;;;;;;5082000;28;20175;-81
2023/04/05 06:29:02;;;;;;;6.20;4.87;;;;;;;;;;5076635;28;20190;-81
2023/04/05 06:31:31;;;;;;;6.47;5.17;;;;;;;;;;5046096;28;20211;-81
2023/04/05 06:33:56;;;;;;;5.83;5.10;;;;;;;;;;5068396;28;20204;-81
2023/04/05 06:36:22;;;;;;;7.97;4.93;;;;;;;;;;5048693;28;20249;-80
2023/04/05 06:38:47;;;;;;;5.97;4.70;;;;;;;;;;5047792;28;20249;-79
2023/04/05 06:41:12;;;;;;;4.93;4.17;;;;;;;;;;5051336;28;20172;-79
2023/04/05 06:43:37;;;;;;;5.80;4.50;;;;;;;;;;5074875;28;20254;-79
2023/04/05 06:46:03;;;;;;;6.20;5.17;;;;;;;;;;5048595;28;20176;-79
2023/04/05 06:48:29;;;;;;;6.93;4.27;;;;;;;;;;5045975;28;20270;-79
2023/04/05 06:50:58;;;;;;;6.20;5.10;;;;;;;;;;5048778;28;20313;-79
2023/04/05 06:53:25;;;;;;;6.33;5.30;;;;;;;;;;5072320;28;20192;-80
2023/04/05 06:55:50;;;;;;;7.80;7.10;;;;;;;;;;5061385;28;20200;-80
2023/04/05 06:58:15;;;;;;;7.43;4.40;;;;;;;;;;5062450;28;20183;-80
2023/04/05 07:00:41;;;;;;;7.43;4.80;;;;;;;;;;5044212;28;20176;-80
2023/04/05 07:03:06;;;;;;;6.97;4.93;;;;;;;;;;5067620;28;20210;-79
2023/04/05 07:05:31;;;;;;;8.63;5.70;;;;;;;;;;5061422;28;20215;-78
2023/04/05 07:07:56;;;;;;;6.20;5.60;;;;;;;;;;5039549;28;20176;-78
2023/04/05 07:10:21;;;;;;;6.97;4.87;;;;;;;;;;5050145;28;20175;-78
2023/04/05 07:12:47;;;;;;;9.20;5.80;;;;;;;;;;5074058;28;20214;-81
2023/04/05 07:15:12;;;;;;;9.90;5.30;;;;;;;;;;5046822;28;20210;-80
2023/04/05 07:17:37;;;;;;;8.40;4.70;;;;;;;;;;5064041;28;20216;-80
2023/04/05 07:20:05;;;;;;;6.30;5.70;;;;;;;;;;5048278;28;20190;-80
2023/04/05 07:22:32;;;;;;;6.73;5.10;;;;;;;;;;5040189;28;20397;-80
2023/04/05 07:24:57;;;;;;;6.83;5.90;;;;;;;;;;5077812;28;20180;-79
2023/04/05 07:27:22;;;;;;;5.00;4.50;;;;;;;;;;5049558;28;20319;-79
2023/04/05 07:29:48;;;;;;;6.03;5.13;;;;;;;;;;5067612;28;20264;-79
2023/04/05 07:32:13;;;;;;;7.07;5.70;;;;;;;;;;5077558;28;20185;-79
2023/04/05 07:34:38;;;;;;;6.00;5.30;;;;;;;;;;5064467;28;20184;-77
2023/04/05 07:37:04;;;;;;;8.40;5.80;;;;;;;;;;5059085;28;20179;-78
2023/04/05 07:39:29;;;;;;;5.70;4.93;;;;;;;;;;5039433;28;20177;-78
2023/04/05 07:41:54;;;;;;;6.67;6.03;;;;;;;;;;5074512;28;20174;-78
2023/04/05 07:44:20;;;;;;;5.97;5.10;;;;;;;;;;5046421;28;20272;-78
2023/04/05 07:46:45;;;;;;;7.47;6.40;;;;;;;;;;5042690;28;20195;-77
2023/04/05 07:49:10;;;;;;;16.83;10.33;;;;;;;;;;5046975;28;20224;-78
2023/04/05 07:51:37;;;;;;;24.10;15.77;;;;;;;;;;5082245;28;20182;-77
2023/04/05 07:54:04;;;;;;;8.40;5.23;;;;;;;;;;5080285;28;20231;-78
2023/04/05 07:56:29;;;;;;;5.77;5.00;;;;;;;;;;5050475;28;20193;-77
2023/04/05 07:58:54;;;;;;;5.53;4.17;;;;;;;;;;5078265;28;20250;-78
2023/04/05 08:01:21;;;;;;;7.80;4.47;;;;;;;;;;5047931;28;20181;-77
2023/04/05 08:03:46;;;;;;;8.10;5.20;;;;;;;;;;5050157;28;20192;-77
2023/04/05 08:06:12;;;;;;;5.67;5.13;;;;;;;;;;5051312;28;20178;-77
2023/04/05 08:08:38;;;;;;;6.63;4.53;;;;;;;;;;5051989;28;20204;-77
2023/04/05 08:11:04;;;;;;;5.97;5.10;;;;;;;;;;5052514;28;20201;-78
2023/04/05 08:13:29;;;;;;;5.13;4.37;;;;;;;;;;5049792;28;20189;-78
2023/04/05 08:15:55;;;;;;;5.83;4.67;;;;;;;;;;5061631;28;20209;-78
2023/04/05 08:18:20;;;;;;;4.73;4.33;;;;;;;;;;5081515;28;20173;-79
2023/04/05 08:20:49;;;;;;;5.43;4.90;;;;;;;;;;5082534;28;20166;-79
2023/04/05 08:23:14;;;;;;;6.63;4.47;;;;;;;;;;5080714;28;20170;-79
2023/04/05 08:25:40;;;;;;;5.40;4.20;;;;;;;;;;5050681;28;20170;-79
2023/04/05 08:28:05;;;;;;;5.93;4.97;;;;;;;;;;5049141;28;20183;-79
2023/04/05 08:30:30;;;;;;;5.80;5.23;;;;;;;;;;5046289;28;20281;-79
2023/04/05 08:32:56;;;;;;;6.93;5.37;;;;;;;;;;5047647;28;20181;-79
2023/04/05 08:35:21;;;;;;;5.20;4.33;;;;;;;;;;5050569;28;20238;-79
2023/04/05 08:37:47;;;;;;;6.23;5.23;;;;;;;;;;5063014;28;20178;-80
2023/04/05 08:40:12;;;;;;;5.90;5.17;;;;;;;;;;5048261;28;20181;-80
2023/04/05 08:42:41;;;;;;;7.77;5.43;;;;;;;;;;5078029;28;20280;-79
2023/04/05 08:45:08;;;;;;;5.90;4.97;;;;;;;;;;5063970;28;20183;-78
2023/04/05 08:47:35;;;;;;;6.00;5.43;;;;;;;;;;5043361;28;20193;-78
2023/04/05 08:50:00;;;;;;;6.67;5.93;;;;;;;;;;5064762;28;20234;-78
2023/04/05 08:52:26;;;;;;;6.13;4.93;;;;;;;;;;5070077;28;20178;-78
2023/04/05 08:54:53;;;;;;;5.67;4.60;;;;;;;;;;5051080;28;20262;-78
2023/04/05 08:57:21;;;;;;;5.57;4.77;;;;;;;;;;5068503;28;20179;-78
2023/04/05 08:59:49;;;;;;;6.80;5.10;;;;;;;;;;5048758;28;20176;-78
2023/04/05 09:02:17;;;;;;;6.67;5.37;;;;;;;;;;5047014;28;20189;-77
2023/04/05 09:04:43;;;;;;;6.00;5.33;;;;;;;;;;5045325;28;20315;-78
2023/04/05 09:07:10;;;;;;;8.17;5.57;;;;;;;;;;5045555;28;20322;-78
2023/04/05 09:09:36;;;;;;;6.13;5.27;;;;;;;;;;5080054;28;20174;-78
2023/04/05 09:12:02;;;;;;;7.37;5.43;;;;;;;;;;5050901;28;20177;-78
2023/04/05 09:14:29;;;;;;;6.20;5.30;;;;;;;;;;5050049;28;20198;-78
2023/04/05 09:16:54;;;;;;;6.73;5.50;;;;;;;;;;5076383;28;20174;-78
2023/04/05 09:19:19;;;;;;;5.93;5.30;;;;;;;;;;5045023;28;20231;-78
2023/04/05 09:22:00;;;;;;;5.20;4.67;;;;;;;;;;5046766;28;20170;-78
2023/04/05 09:24:29;;;;;;;7.27;5.50;;;;;;;;;;5078944;28;20273;-78
2023/04/05 09:27:05;;;;;;;7.37;5.60;;;;;;;;;;5047298;28;20265;-78
2023/04/05 09:29:30;;;;;;;8.07;5.93;;;;;;;;;;5049723;28;20281;-78
2023/04/05 09:31:56;;;;;;;5.53;5.03;;;;;;;;;;5046831;28;20261;-78
2023/04/05 09:34:22;;;;;;;6.17;4.87;;;;;;;;;;5047965;28;20228;-78
2023/04/05 09:36:48;;;;;;;6.13;5.30;;;;;;;;;;5047537;28;20202;-78
2023/04/05 09:39:15;;;;;;;5.80;5.20;;;;;;;;;;5076008;28;20270;-79
2023/04/05 09:41:40;;;;;;;7.30;6.57;;;;;;;;;;5064562;28;20162;-78
2023/04/05 09:44:06;;;;;;;6.83;5.50;;;;;;;;;;5045808;28;20167;-79
2023/04/05 09:46:36;;;;;;;5.50;4.97;;;;;;;;;;5078861;28;20214;-79
2023/04/05 09:49:02;;;;;;;4.80;4.40;;;;;;;;;;5051522;28;20309;-79
2023/04/05 09:51:35;;;;;;;6.33;5.10;;;;;;;;;;5049839;28;20174;-79
2023/04/05 09:54:00;;;;;;;6.83;5.90;;;;;;;;;;5049706;28;20269;-79
2023/04/05 09:56:26;;;;;;;7.10;6.07;;;;;;;;;;5043271;28;20296;-79
2023/04/05 09:58:51;;;;;;;8.63;7.80;;;;;;;;;;5048376;28;20178;-79
2023/04/05 10:01:18;;;;;;;11.27;6.00;;;;;;;;;;5049350;28;20189;-79
2023/04/05 10:03:47;;;;;;;6.67;5.97;;;;;;;;;;5043811;28;20170;-79
2023/04/05 10:06:12;;;;;;;6.93;5.80;;;;;;;;;;5049439;28;20191;-79
2023/04/05 10:08:38;;;;;;;5.97;5.33;;;;;;;;;;5043135;28;20182;-79
2023/04/05 10:11:04;;;;;;;7.30;5.73;;;;;;;;;;5045072;28;20178;-78
2023/04/05 10:13:30;;;;;;;7.93;5.40;;;;;;;;;;5048347;28;20185;-79
2023/04/05 10:15:59;;;;;;;6.57;5.97;;;;;;;;;;5065527;28;20206;-79
2023/04/05 10:18:27;;;;;;;6.03;5.43;;;;;;;;;;5046673;28;20259;-79
2023/04/05 10:20:56;;;;;;;7.10;5.57;;;;;;;;;;5065221;28;20231;-79
2023/04/05 10:23:23;;;;;;;6.10;5.33;;;;;;;;;;5048313;28;20182;-79
2023/04/05 10:25:51;;;;;;;6.90;5.70;;;;;;;;;;5053875;28;20276;-79
2023/04/05 10:28:30;;;;;;;8.00;5.30;;;;;;;;;;5048308;28;20273;-79
2023/04/05 10:31:07;;;;;;;6.83;5.53;;;;;;;;;;5047332;28;20272;-79
2023/04/05 10:33:43;;;;;;;9.70;6.47;;;;;;;;;;5077423;28;20324;-79
2023/04/05 10:36:17;;;;;;;7.00;5.77;;;;;;;;;;5077499;28;20297;-80
2023/04/05 10:38:48;;;;;;;7.60;5.63;;;;;;;;;;5046750;28;20194;-79
2023/04/05 10:41:13;;;;;;;6.37;5.77;;;;;;;;;;5076634;28;20178;-79
2023/04/05 10:43:39;;;;;;;6.30;5.70;;;;;;;;;;5047576;28;20209;-79
2023/04/05 10:46:05;;;;;;;7.20;5.67;;;;;;;;;;5047265;28;20190;-79
2023/04/05 10:48:34;;;;;;;9.43;6.37;;;;;;;;;;5075338;28;20186;-79
2023/04/05 10:51:00;;;;;;;6.23;5.63;;;;;;;;;;5045547;28;20242;-79
2023/04/05 10:53:26;;;;;;;5.83;4.60;;;;;;;;;;5047674;28;20261;-79
2023/04/05 10:55:52;;;;;;;4.57;4.10;;;;;;;;;;5064282;28;20199;-79
2023/04/05 10:58:18;;;;;;;6.43;5.00;;;;;;;;;;5042486;28;20227;-79
2023/04/05 11:00:44;;;;;;;5.30;4.80;;;;;;;;;;5060810;28;20186;-79
2023/04/05 11:03:09;;;;;;;6.60;6.00;;;;;;;;;;5064318;28;20277;-79
2023/04/05 11:05:36;;;;;;;5.30;4.90;;;;;;;;;;5049335;28;20249;-79
2023/04/05 11:08:05;;;;;;;5.47;4.97;;;;;;;;;;5075813;28;20255;-79
2023/04/05 11:10:32;;;;;;;7.13;4.77;;;;;;;;;;5050710;28;20206;-76
2023/04/05 11:12:57;;;;;;;6.53;5.77;;;;;;;;;;5063872;28;20179;-76
2023/04/05 11:15:29;;;;;;;5.30;4.80;;;;;;;;;;5073815;28;20254;-76
2023/04/05 11:18:10;;;;;;;5.00;4.50;;;;;;;;;;5079341;28;20179;-76
2023/04/05 11:20:54;;;;;;;6.93;5.60;;;;;;;;;;5066506;28;20177;-76
2023/04/05 11:23:21;;;;;;;7.27;4.57;;;;;;;;;;5048892;28;20163;-76
2023/04/05 11:25:49;;;;;;;5.60;5.10;;;;;;;;;;5059078;28;20180;-76
2023/04/05 11:28:21;;;;;;;5.87;5.37;;;;;;;;;;5048967;28;20208;-76
2023/04/05 11:30:55;;;;;;;6.00;5.40;;;;;;;;;;5046204;28;20183;-76
2023/04/05 11:33:53;;;;;;;5.23;4.67;;;;;;;;;;5050856;28;20267;-76
2023/04/05 11:36:30;;;;;;;7.43;6.10;;;;;;;;;;5042970;28;20224;-76
2023/04/05 11:39:14;;;;;;;5.23;4.73;;;;;;;;;;5044149;28;20321;-77
2023/04/05 11:41:40;;;;;;;5.13;4.70;;;;;;;;;;5071607;28;20177;-76
2023/04/05 11:44:12;;;;;;;5.40;4.90;;;;;;;;;;5081269;28;20289;-76
2023/04/05 11:46:37;;;;;;;8.57;5.93;;;;;;;;;;5046299;28;20226;-76
2023/04/05 11:49:03;;;;;;;5.53;4.93;;;;;;;;;;5049759;28;20249;-77
2023/04/05 11:51:28;;;;;;;7.47;5.67;;;;;;;;;;5050241;28;20174;-76
2023/04/05 11:53:53;;;;;;;5.37;4.93;;;;;;;;;;5054499;28;20184;-77
2023/04/05 11:56:20;;;;;;;6.20;5.60;;;;;;;;;;5050343;28;20206;-77
2023/04/05 11:58:45;;;;;;;6.53;5.67;;;;;;;;;;5051779;28;20174;-77
2023/04/05 12:01:10;;;;;;;6.37;5.10;;;;;;;;;;5047944;28;20169;-77
2023/04/05 12:03:36;;;;;;;6.23;5.30;;;;;;;;;;5040657;28;20207;-77
2023/04/05 12:06:02;;;;;;;6.23;5.50;;;;;;;;;;5064833;28;20284;-76
2023/04/05 12:08:49;;;;;;;5.13;4.37;;;;;;;;;;5064893;28;20173;-76
2023/04/05 12:11:14;;;;;;;6.43;5.73;;;;;;;;;;5064975;28;20275;-77
2023/04/05 12:13:40;;;;;;;6.20;5.70;;;;;;;;;;5066097;28;20296;-77
2023/04/05 12:16:06;;;;;;;6.90;5.77;;;;;;;;;;5078911;28;20206;-77
2023/04/05 12:18:32;;;;;;;6.10;5.27;;;;;;;;;;5047604;28;20317;-77
2023/04/05 12:20:58;;;;;;;5.97;5.37;;;;;;;;;;5048996;28;20202;-77
2023/04/05 12:23:24;;;;;;;7.07;6.33;;;;;;;;;;5077692;28;20276;-77
2023/04/05 12:25:49;;;;;;;6.27;5.20;;;;;;;;;;5066710;28;20224;-77
2023/04/05 12:28:15;;;;;;;6.53;5.80;;;;;;;;;;5050208;28;20209;-77
2023/04/05 12:30:49;;;;;;;7.60;5.93;;;;;;;;;;5049032;28;20166;-77
2023/04/05 12:33:14;;;;;;;8.30;6.00;;;;;;;;;;5048720;28;20178;-77
2023/04/05 12:35:40;;;;;;;5.70;5.20;;;;;;;;;;5052128;28;20209;-77
2023/04/05 12:38:06;;;;;;;6.20;4.93;;;;;;;;;;5049765;28;20210;-77
2023/04/05 12:40:35;;;;;;;8.67;6.37;;;;;;;;;;5045285;28;20190;-77
2023/04/05 12:43:03;;;;;;;7.13;5.07;;;;;;;;;;5049369;28;20247;-77
2023/04/05 12:45:28;;;;;;;5.70;5.10;;;;;;;;;;5066027;28;20182;-77
2023/04/05 12:47:57;;;;;;;6.27;5.20;;;;;;;;;;5047632;28;20189;-77
2023/04/05 12:50:30;;;;;;;5.80;5.30;;;;;;;;;;5045719;28;20260;-77
2023/04/05 12:53:00;;;;;;;5.63;5.13;;;;;;;;;;5050163;28;20179;-77
2023/04/05 12:55:26;;;;;;;5.87;5.37;;;;;;;;;;5066172;28;20519;-77
2023/04/05 12:57:52;;;;;;;6.93;5.60;;;;;;;;;;5081273;28;20194;-77
2023/04/05 13:00:20;;;;;;;6.00;5.40;;;;;;;;;;5082351;28;20194;-77
2023/04/05 13:02:47;;;;;;;6.23;5.37;;;;;;;;;;5045985;28;20301;-77
2023/04/05 13:05:12;;;;;;;6.20;5.60;;;;;;;;;;5071232;28;20229;-77
2023/04/05 13:07:38;;;;;;;7.83;7.03;;;;;;;;;;5081201;28;20206;-77
2023/04/05 13:10:03;;;;;;;5.30;4.80;;;;;;;;;;5073706;28;20228;-77
2023/04/05 13:12:28;;;;;;;10.27;7.77;;;;;;;;;;5044063;28;20203;-77
2023/04/05 13:14:54;;;;;;;6.77;6.03;;;;;;;;;;5050526;28;20217;-77
2023/04/05 13:17:22;;;;;;;8.03;6.03;;;;;;;;;;5045203;28;20162;-77
2023/04/05 13:19:47;;;;;;;6.73;5.97;;;;;;;;;;5079868;28;20240;-77
2023/04/05 13:22:13;;;;;;;6.23;5.63;;;;;;;;;;5073489;28;20220;-77
2023/04/05 13:24:38;;;;;;;6.10;5.17;;;;;;;;;;5044308;28;20181;-77
2023/04/05 13:27:03;;;;;;;5.87;5.37;;;;;;;;;;5047690;28;20187;-76
2023/04/05 13:29:28;;;;;;;6.60;6.03;;;;;;;;;;5043302;28;20172;-77
2023/04/05 13:31:54;;;;;;;7.67;6.03;;;;;;;;;;5047372;28;20179;-77
2023/04/05 13:34:19;;;;;;;6.63;5.70;;;;;;;;;;5049114;28;20290;-77
2023/04/05 13:36:44;;;;;;;6.97;6.27;;;;;;;;;;5062960;28;20231;-77
2023/04/05 13:39:10;;;;;;;7.07;5.97;;;;;;;;;;5041624;28;20179;-77
2023/04/05 13:41:35;;;;;;;6.93;5.20;;;;;;;;;;5076704;28;20172;-77
2023/04/05 13:44:00;;;;;;;6.37;5.60;;;;;;;;;;5074119;28;20237;-77
2023/04/05 13:46:25;;;;;;;6.20;5.60;;;;;;;;;;5055280;28;20241;-77
2023/04/05 13:48:50;;;;;;;5.50;5.00;;;;;;;;;;5047886;28;20196;-77
2023/04/05 13:51:16;;;;;;;6.17;5.57;;;;;;;;;;5049777;28;20193;-77
2023/04/05 13:53:41;;;;;;;5.60;5.10;;;;;;;;;;5046669;28;20181;-75
2023/04/05 13:56:06;;;;;;;6.33;5.73;;;;;;;;;;5045572;28;20205;-75
2023/04/05 13:58:32;;;;;;;5.70;5.20;;;;;;;;;;5049293;28;20174;-75
2023/04/05 14:00:57;;;;;;;5.50;5.00;;;;;;;;;;5067225;28;20184;-74
2023/04/05 14:03:23;;;;;;;6.10;5.50;;;;;;;;;;5046277;28;20188;-75
2023/04/05 14:05:48;;;;;;;6.53;5.20;;;;;;;;;;5049251;28;20173;-75
2023/04/05 14:08:13;;;;;;;6.20;5.20;;;;;;;;;;5063230;28;20176;-75
2023/04/05 14:10:39;;;;;;;6.23;5.63;;;;;;;;;;5065330;28;20189;-75
2023/04/05 14:13:04;;;;;;;6.17;5.30;;;;;;;;;;5076604;28;20189;-75
2023/04/05 14:15:29;;;;;;;7.37;6.60;;;;;;;;;;5049994;28;20197;-74
2023/04/05 14:17:54;;;;;;;6.03;5.30;;;;;;;;;;5048462;28;20181;-75
2023/04/05 14:20:20;;;;;;;6.00;4.77;;;;;;;;;;5047853;28;20183;-75
2023/04/05 14:22:45;;;;;;;9.93;5.67;;;;;;;;;;5052294;28;20192;-75
2023/04/05 14:25:10;;;;;;;6.57;5.97;;;;;;;;;;5051962;28;20181;-75
2023/04/05 14:27:40;;;;;;;6.83;6.07;;;;;;;;;;5077268;28;20183;-76
2023/04/05 14:30:06;;;;;;;6.90;6.10;;;;;;;;;;5064323;28;20211;-77
2023/04/05 14:32:31;;;;;;;7.53;5.60;;;;;;;;;;5054489;28;20185;-77
2023/04/05 14:34:56;;;;;;;7.13;5.70;;;;;;;;;;5044997;28;20200;-77
2023/04/05 14:37:22;;;;;;;6.97;6.27;;;;;;;;;;5049233;28;20179;-77